Flight Track Log - Related Links

Times and Time Zones

All times are in EDT time to prevent confusion due to time zone crossing. See the RPA4907 flight status page for this flight to view local times or setup timezone preferences in your user account.

Time Position Orientation Groundspeed Altitude Reporting Facility
EDT Latitude Longitude Course Direction KTS MPH feet Rate Location/Type
Tue 04:53:12 PM 39.1500 -76.6500 42° Northeast 178 205 1,400  Level Potomac TRACON
Tue 04:54:12 PM 39.1500 -76.5833 90° East 210 242 3,500 1,950 Climbing Potomac TRACON
Tue 04:55:12 PM 39.1333 -76.5000 104° East 243 280 5,300 1,900 Climbing Potomac TRACON
Tue 04:56:00 PM 39.2139 -76.1361 38° Northeast  Level FlightAware Approximate
Tue 04:56:12 PM 39.1500 -76.4167 76° East 280 322 7,300  Level Potomac TRACON
Tue 04:57:00 PM 39.2954 -76.0395 46° Northeast  Level FlightAware Approximate
Tue 04:57:12 PM 39.2000 -76.3333 52° Northeast 294 338 9,000  Level Potomac TRACON
Tue 04:58:00 PM 39.3774 -75.9431 42° Northeast  Level FlightAware Approximate
Tue 04:58:12 PM 39.2500 -76.2500 52° Northeast 300 345 10,900  Level Potomac TRACON
Tue 04:59:06 PM 39.3000 -76.1667 52° Northeast 331 381 11,000 36 Climbing Potomac TRACON
Tue 05:00:59 PM 39.4167 -75.9667 53° Northeast 363 418 11,000  Level Philadelphia TRACON
Tue 05:01:59 PM 39.4667 -75.8667 57° Northeast 361 415 11,000  Level Philadelphia TRACON
Tue 05:02:59 PM 39.5333 -75.7667 49° Northeast 357 411 11,000  Level Philadelphia TRACON
Tue 05:03:59 PM 39.6167 -75.6833 38° Northeast 353 406 11,000  Level Philadelphia TRACON
Tue 05:04:59 PM 39.6833 -75.6000 44° Northeast 349 402 11,000  Level Philadelphia TRACON
Tue 05:05:59 PM 39.7333 -75.5000 57° Northeast 350 403 11,000  Level Philadelphia TRACON
Tue 05:06:59 PM 39.7833 -75.3833 61° Northeast 348 400 11,000 -450 Level Philadelphia TRACON
Tue 05:07:59 PM 39.8167 -75.2667 70° East 358 412 10,100 -850 Descending Philadelphia TRACON
Tue 05:08:59 PM 39.8333 -75.1500 79° East 330 380 9,300 -1,100 Descending Philadelphia TRACON
Tue 05:09:59 PM 39.8500 -75.0333 79° East 308 354 7,900 -1,100 Descending Philadelphia TRACON
Tue 05:10:59 PM 39.8833 -74.9500 62° Northeast 301 346 7,100 -450 Descending Philadelphia TRACON
Tue 05:11:59 PM 39.9500 -74.8667 44° Northeast 298 343 7,000 -50 Descending Philadelphia TRACON
Tue 05:12:59 PM 40.0000 -74.7833 52° Northeast 306 352 7,000  Level Philadelphia TRACON
Tue 05:13:36 PM 40.0333 -74.7333 49° Northeast 299 344 7,000  Level New York TRACON
Tue 05:14:30 PM 40.1000 -74.6667 37° Northeast 298 343 7,000  Level New York TRACON
Tue 05:15:36 PM 40.1833 -74.6500 North 294 338 7,000  Level New York TRACON
Tue 05:16:30 PM 40.2500 -74.6333 11° North 289 333 7,000 -474 Level New York TRACON
Tue 05:17:30 PM 40.3333 -74.6167 North 286 329 6,100 -900 Descending New York TRACON
Tue 05:18:30 PM 40.4000 -74.6000 11° North 279 321 5,200 -905 Descending New York TRACON
Tue 05:19:36 PM 40.4833 -74.5500 25° Northeast 271 312 4,200 -1,000 Descending New York TRACON
Tue 05:20:36 PM 40.5500 -74.5000 30° Northeast 285 328 3,100 -905 Descending New York TRACON
Tue 05:21:42 PM 40.6167 -74.4500 30° Northeast 273 314 2,300 -550 Descending New York TRACON
Tue 05:22:36 PM 40.6667 -74.4167 27° Northeast 216 249 2,000 -158 Descending New York TRACON
Tue 05:23:36 PM 40.7167 -74.3833 27° Northeast 192 221 2,000 50 Level New York TRACON
Tue 05:24:36 PM 40.7333 -74.3333 66° East 183 211 2,100 100 Climbing New York TRACON

Login

Don't have an account? Register now (free) for customized features, flight alerts, and more!